createdAt,value
2022-09-02T00:01:47.700Z,6.10
2022-09-02T00:04:23.103Z,5.10
2022-09-02T00:06:52.858Z,6.00
2022-09-02T00:09:25.138Z,3.80
2022-09-02T00:11:56.583Z,5.20
2022-09-02T00:14:28.437Z,4.20
2022-09-02T00:16:56.582Z,3.80
2022-09-02T00:19:25.741Z,4.90
2022-09-02T00:21:56.731Z,4.00
2022-09-02T00:24:25.150Z,4.60
2022-09-02T00:26:56.607Z,7.80
2022-09-02T00:29:29.268Z,7.50
2022-09-02T00:31:57.367Z,7.70
2022-09-02T00:34:27.470Z,6.40
2022-09-02T00:36:56.768Z,6.40
2022-09-02T00:39:26.759Z,7.00
2022-09-02T00:41:55.690Z,5.90
2022-09-02T00:44:25.194Z,4.80
2022-09-02T00:46:53.730Z,7.50
2022-09-02T00:49:29.103Z,6.40
2022-09-02T00:52:29.654Z,4.90
2022-09-02T00:55:02.616Z,5.10
2022-09-02T00:57:39.290Z,5.10
2022-09-02T01:00:13.764Z,6.70
2022-09-02T01:02:42.248Z,3.80
2022-09-02T01:05:15.128Z,4.90
2022-09-02T01:07:45.122Z,5.50
2022-09-02T01:10:20.488Z,6.60
2022-09-02T01:12:49.463Z,7.60
2022-09-02T01:15:18.100Z,5.60
2022-09-02T01:17:49.056Z,7.40
2022-09-02T01:20:26.239Z,6.10
2022-09-02T01:22:55.793Z,7.90
2022-09-02T01:25:32.897Z,7.70
2022-09-02T01:28:05.333Z,6.20
2022-09-02T01:30:39.958Z,8.60
2022-09-02T01:33:09.682Z,6.10
2022-09-02T01:35:42.096Z,8.20
2022-09-02T01:38:12.289Z,7.70
2022-09-02T01:40:41.124Z,6.30
2022-09-02T01:43:13.966Z,6.90
2022-09-02T01:45:47.611Z,7.80
2022-09-02T01:48:21.313Z,6.00
2022-09-02T01:50:59.545Z,4.90
2022-09-02T01:53:29.236Z,5.50
2022-09-02T01:55:58.255Z,7.30
2022-09-02T01:58:26.368Z,4.40
2022-09-02T02:00:54.293Z,6.40
2022-09-02T02:03:22.775Z,7.60
2022-09-02T02:05:50.809Z,4.50
2022-09-02T02:08:19.289Z,4.50
2022-09-02T02:10:50.000Z,7.20
2022-09-02T02:13:18.307Z,4.40
2022-09-02T02:15:46.649Z,4.90
2022-09-02T02:18:14.968Z,7.40
2022-09-02T02:20:44.886Z,4.90
2022-09-02T02:23:16.234Z,8.40
2022-09-02T02:25:44.757Z,8.00
2022-09-02T02:28:14.469Z,5.70
2022-09-02T02:30:42.576Z,8.60
2022-09-02T02:33:12.403Z,5.70
2022-09-02T02:35:42.345Z,8.80
2022-09-02T02:38:14.411Z,8.50
2022-09-02T02:40:46.029Z,9.80
2022-09-02T02:43:14.581Z,8.80
2022-09-02T02:45:47.848Z,6.20
2022-09-02T02:48:16.255Z,4.60
2022-09-02T02:50:44.331Z,6.90
2022-09-02T02:53:20.868Z,6.00
2022-09-02T02:55:49.924Z,7.30
2022-09-02T02:58:22.415Z,4.60
2022-09-02T03:00:51.876Z,5.80
2022-09-02T03:03:22.777Z,7.90
2022-09-02T03:05:54.302Z,3.60
2022-09-02T03:08:23.145Z,9.90
2022-09-02T03:10:56.396Z,8.50
2022-09-02T03:13:29.457Z,3.80
2022-09-02T03:15:58.104Z,4.30
2022-09-02T03:18:27.591Z,7.20
2022-09-02T03:20:55.734Z,5.60
2022-09-02T03:23:25.854Z,5.30
2022-09-02T03:25:55.856Z,3.60
2022-09-02T03:28:29.682Z,4.70
2022-09-02T03:30:58.682Z,4.40
2022-09-02T03:33:27.475Z,7.90
2022-09-02T03:35:56.277Z,8.50
2022-09-02T03:38:25.548Z,6.80
2022-09-02T03:40:56.447Z,21.10
2022-09-02T03:43:25.233Z,12.40
2022-09-02T03:45:53.244Z,9.70
2022-09-02T03:48:23.227Z,5.30
2022-09-02T03:50:51.727Z,7.70
2022-09-02T03:53:21.203Z,4.10
2022-09-02T03:55:57.322Z,11.10
2022-09-02T03:58:26.860Z,12.20
2022-09-02T04:00:55.816Z,5.10
2022-09-02T04:03:25.529Z,4.20
2022-09-02T04:05:53.911Z,11.50
2022-09-02T04:08:24.126Z,7.70
2022-09-02T04:10:53.846Z,6.70
2022-09-02T04:13:24.754Z,5.30
2022-09-02T04:15:52.745Z,3.20
2022-09-02T04:18:24.431Z,4.60
2022-09-02T04:21:00.187Z,4.90
2022-09-02T04:23:31.567Z,6.00
2022-09-02T04:26:05.501Z,7.00
2022-09-02T04:28:38.367Z,7.40
2022-09-02T04:31:09.488Z,8.30
2022-09-02T04:33:40.985Z,4.90
2022-09-02T04:38:47.686Z,5.80
2022-09-02T04:41:22.513Z,5.70
2022-09-02T04:43:52.442Z,9.00
2022-09-02T04:46:22.866Z,7.20
2022-09-02T04:49:07.580Z,7.40
2022-09-02T04:51:35.913Z,10.10
2022-09-02T04:54:06.888Z,11.80
2022-09-02T04:56:35.292Z,6.60
2022-09-02T04:59:08.895Z,11.10
2022-09-02T05:01:40.061Z,11.10
2022-09-02T05:04:13.200Z,6.30
2022-09-02T05:06:48.311Z,8.70
2022-09-02T05:09:19.291Z,14.50
2022-09-02T05:11:52.395Z,15.40
2022-09-02T05:14:24.941Z,23.10
2022-09-02T05:16:54.600Z,17.60
2022-09-02T05:19:23.692Z,12.80
2022-09-02T05:21:57.715Z,12.30
2022-09-02T05:24:30.590Z,14.80
2022-09-02T05:27:00.749Z,8.20
2022-09-02T05:29:29.786Z,10.30
2022-09-02T05:31:58.815Z,10.90
2022-09-02T05:34:35.611Z,12.60
2022-09-02T05:37:07.352Z,13.50
2022-09-02T05:39:38.711Z,19.70
2022-09-02T05:42:08.149Z,21.60
2022-09-02T05:44:37.433Z,18.00
2022-09-02T05:47:07.277Z,28.90
2022-09-02T05:49:38.949Z,18.60
2022-09-02T05:52:13.539Z,20.50
2022-09-02T05:54:48.200Z,17.10
2022-09-02T05:57:21.910Z,25.90
2022-09-02T06:00:07.216Z,20.00
2022-09-02T06:02:48.245Z,21.10
2022-09-02T06:05:27.895Z,33.90
2022-09-02T06:08:05.305Z,18.20
2022-09-02T06:10:34.333Z,15.00
2022-09-02T06:13:02.893Z,12.90
2022-09-02T06:15:33.553Z,7.50
2022-09-02T06:18:02.411Z,6.10
2022-09-02T06:20:32.917Z,9.10
2022-09-02T06:23:02.525Z,10.60
2022-09-02T06:25:30.924Z,11.90
2022-09-02T06:28:03.053Z,10.70
2022-09-02T06:30:35.675Z,7.70
2022-09-02T06:33:04.843Z,5.40
2022-09-02T06:35:38.582Z,8.10
2022-09-02T06:38:11.081Z,10.20
2022-09-02T06:40:52.152Z,16.20
2022-09-02T06:43:25.136Z,10.20
2022-09-02T06:46:07.468Z,8.20
2022-09-02T06:48:36.694Z,11.50
2022-09-02T06:51:07.196Z,3.60
2022-09-02T06:53:35.639Z,3.70
2022-09-02T06:56:08.231Z,8.30
2022-09-02T06:58:36.734Z,7.00
2022-09-02T07:01:08.338Z,5.00
2022-09-02T07:03:58.868Z,12.00
2022-09-02T07:06:27.737Z,14.30
2022-09-02T07:08:56.713Z,11.00
2022-09-02T07:11:28.164Z,4.60
2022-09-02T07:14:01.290Z,6.80
2022-09-02T07:16:33.421Z,5.00
2022-09-02T07:19:01.509Z,3.40
2022-09-02T07:21:31.315Z,6.40
2022-09-02T07:24:02.337Z,3.70
2022-09-02T07:26:31.543Z,4.90
2022-09-02T07:29:00.333Z,7.40
2022-09-02T07:31:29.612Z,4.40
2022-09-02T07:33:59.270Z,5.50
2022-09-02T07:36:29.983Z,5.40
2022-09-02T07:39:01.756Z,11.00
2022-09-02T07:41:30.358Z,5.50
2022-09-02T07:43:59.694Z,6.00
2022-09-02T07:46:32.475Z,3.60
2022-09-02T07:49:02.237Z,6.60
2022-09-02T07:51:32.915Z,4.50
2022-09-02T07:54:07.220Z,5.40
2022-09-02T07:56:41.086Z,6.00
2022-09-02T07:59:16.392Z,2.60
2022-09-02T08:01:53.185Z,4.10
2022-09-02T08:04:25.322Z,5.40
2022-09-02T08:06:54.936Z,5.80
2022-09-02T08:09:23.559Z,4.50
2022-09-02T08:11:53.742Z,5.30
2022-09-02T08:14:28.852Z,4.20
2022-09-02T08:17:05.471Z,5.10
2022-09-02T08:19:34.563Z,3.70
2022-09-02T08:22:06.707Z,2.70
2022-09-02T08:24:36.165Z,4.20
2022-09-02T08:27:05.732Z,2.50
2022-09-02T08:29:36.571Z,4.20
2022-09-02T08:32:04.939Z,3.20
2022-09-02T08:34:33.018Z,3.20
2022-09-02T08:37:11.229Z,2.80
2022-09-02T08:39:39.757Z,6.10
2022-09-02T08:42:15.549Z,5.10
2022-09-02T08:44:44.021Z,5.50
2022-09-02T08:47:23.031Z,12.50
2022-09-02T08:49:58.190Z,2.70
2022-09-02T08:52:44.072Z,2.90
2022-09-02T08:55:46.195Z,5.90
2022-09-02T08:58:20.748Z,6.20
2022-09-02T09:01:25.965Z,3.10
2022-09-02T09:04:38.843Z,5.80
2022-09-02T09:07:18.944Z,2.90
2022-09-02T09:10:28.007Z,4.20
2022-09-02T09:13:22.693Z,2.30
2022-09-02T09:16:11.071Z,5.50
2022-09-02T09:18:45.387Z,2.00
2022-09-02T09:21:14.471Z,3.70
2022-09-02T09:23:46.801Z,1.60
2022-09-02T09:26:27.830Z,3.70
2022-09-02T09:28:59.982Z,3.10
2022-09-02T09:31:31.432Z,2.20
2022-09-02T09:34:06.086Z,4.80
2022-09-02T09:36:49.809Z,2.90
2022-09-02T09:39:32.530Z,2.90
2022-09-02T09:42:03.404Z,2.80
2022-09-02T09:44:37.687Z,5.40
2022-09-02T09:47:10.477Z,5.40
2022-09-02T09:49:41.986Z,3.40
2022-09-02T09:52:22.976Z,3.20
2022-09-02T09:55:22.728Z,5.00
2022-09-02T09:57:55.948Z,2.50
2022-09-02T10:00:33.036Z,3.80
2022-09-02T10:03:06.858Z,1.60
2022-09-02T10:05:40.326Z,1.70
2022-09-02T10:08:29.348Z,2.20
2022-09-02T10:11:08.512Z,3.20
2022-09-02T10:13:38.857Z,1.60
2022-09-02T10:16:48.632Z,3.40
2022-09-02T10:19:40.579Z,3.90
2022-09-02T10:22:19.824Z,7.70
2022-09-02T10:25:53.620Z,6.10
2022-09-02T10:29:03.984Z,4.30
2022-09-02T10:32:06.677Z,6.60
2022-09-02T10:35:02.046Z,2.80
2022-09-02T10:37:55.756Z,5.10
2022-09-02T10:40:35.395Z,2.90
2022-09-02T10:43:10.146Z,1.70
2022-09-02T10:45:47.089Z,3.50
2022-09-02T10:49:05.793Z,2.70
2022-09-02T10:52:09.696Z,3.20
2022-09-02T10:54:59.448Z,2.80
2022-09-02T10:57:32.925Z,2.60
2022-09-02T11:00:21.627Z,4.80
2022-09-02T11:03:20.925Z,4.00
2022-09-02T11:05:59.745Z,2.00
2022-09-02T11:08:45.249Z,2.50
2022-09-02T11:11:38.207Z,2.70
2022-09-02T11:14:27.024Z,2.30
2022-09-02T11:17:05.362Z,2.90
2022-09-02T11:20:08.079Z,2.60
2022-09-02T11:23:14.771Z,2.10
2022-09-02T11:26:14.867Z,2.00
2022-09-02T11:29:10.811Z,1.80
2022-09-02T11:31:44.718Z,2.00
2022-09-02T11:34:37.784Z,1.40
2022-09-02T11:37:15.687Z,2.10
2022-09-02T11:40:17.145Z,1.80
2022-09-02T11:43:40.769Z,2.00
2022-09-02T11:46:46.456Z,4.20
2022-09-02T11:49:41.567Z,3.60
2022-09-02T11:52:23.979Z,2.70
2022-09-02T11:55:20.625Z,1.60
2022-09-02T11:57:54.392Z,2.30
2022-09-02T12:00:37.022Z,1.60
2022-09-02T12:03:12.024Z,1.40
2022-09-02T12:06:04.250Z,2.70
2022-09-02T12:08:39.842Z,3.40
2022-09-02T12:11:08.684Z,1.40
2022-09-02T12:13:41.231Z,3.80
2022-09-02T12:16:21.457Z,3.20
2022-09-02T12:18:55.543Z,4.60
2022-09-02T12:21:25.072Z,1.00
2022-09-02T12:24:09.544Z,1.90
2022-09-02T12:26:37.779Z,3.90
2022-09-02T12:29:29.385Z,2.00
2022-09-02T12:31:59.473Z,1.60
2022-09-02T12:34:29.934Z,3.20
2022-09-02T12:37:00.591Z,2.10
2022-09-02T12:39:41.304Z,3.20
2022-09-02T12:42:33.677Z,1.00
2022-09-02T12:45:29.310Z,1.80
2022-09-02T12:48:18.157Z,2.90
2022-09-02T12:51:36.664Z,2.40
2022-09-02T12:54:06.337Z,0.60
2022-09-02T12:56:38.698Z,1.40
2022-09-02T12:59:07.638Z,1.90
2022-09-02T13:02:13.286Z,1.40
2022-09-02T13:04:56.761Z,1.70
2022-09-02T13:07:59.799Z,2.90
2022-09-02T13:10:51.162Z,2.80
2022-09-02T13:13:55.467Z,1.60
2022-09-02T13:16:40.159Z,2.50
2022-09-02T13:19:38.508Z,1.90
2022-09-02T13:22:23.776Z,3.30
2022-09-02T13:25:13.234Z,4.70
2022-09-02T13:28:09.860Z,1.50
2022-09-02T13:31:06.054Z,3.00
2022-09-02T13:33:34.679Z,0.90
2022-09-02T13:36:03.144Z,6.00
2022-09-02T13:38:42.041Z,1.00
2022-09-02T13:41:10.293Z,2.20
2022-09-02T13:43:38.252Z,2.30
2022-09-02T13:46:06.962Z,3.30
2022-09-02T13:48:40.385Z,2.20
2022-09-02T13:51:17.969Z,2.50
2022-09-02T13:54:20.762Z,2.90
2022-09-02T13:56:37.629Z,1.30
2022-09-02T13:59:05.527Z,3.40
2022-09-02T14:01:38.256Z,1.80
2022-09-02T14:04:14.440Z,2.40
2022-09-02T14:06:47.739Z,1.20
2022-09-02T14:09:29.757Z,3.20
2022-09-02T14:12:01.952Z,2.40
2022-09-02T14:14:30.761Z,4.30
2022-09-02T14:17:27.561Z,2.40
2022-09-02T14:20:09.968Z,2.40
2022-09-02T14:22:38.005Z,1.80
2022-09-02T14:25:13.731Z,1.90
2022-09-02T14:27:58.100Z,1.90
2022-09-02T14:30:40.468Z,2.00
2022-09-02T14:33:22.254Z,1.70
2022-09-02T14:36:06.243Z,2.00
2022-09-02T14:38:57.396Z,1.50
2022-09-02T14:41:30.817Z,0.90
2022-09-02T14:46:55.453Z,2.80
2022-09-02T14:49:33.302Z,0.80
2022-09-02T14:52:16.339Z,2.00
2022-09-02T14:54:49.815Z,1.10
2022-09-02T14:57:35.842Z,1.40
2022-09-02T15:00:34.442Z,1.70
2022-09-02T15:03:03.615Z,0.80
2022-09-02T15:05:31.539Z,4.70
2022-09-02T15:08:02.480Z,4.20
2022-09-02T15:10:31.765Z,1.20
2022-09-02T15:13:02.799Z,2.20
2022-09-02T15:15:31.314Z,1.00
2022-09-02T15:18:03.319Z,1.60
2022-09-02T15:20:34.424Z,3.90
2022-09-02T15:23:02.335Z,2.10
2022-09-02T15:25:34.343Z,2.60
2022-09-02T15:28:05.186Z,1.90
2022-09-02T15:30:36.747Z,1.80
2022-09-02T15:33:05.865Z,1.00
2022-09-02T15:35:35.414Z,4.10
2022-09-02T15:38:04.167Z,0.80
2022-09-02T15:40:32.961Z,0.40
2022-09-02T15:43:00.862Z,1.50
2022-09-02T15:45:28.756Z,2.50
2022-09-02T15:47:59.693Z,1.10
2022-09-02T15:50:32.246Z,4.00
2022-09-02T15:53:02.662Z,1.30
2022-09-02T15:55:34.567Z,0.80
2022-09-02T15:58:02.437Z,1.10
2022-09-02T16:00:35.106Z,1.80
2022-09-02T16:03:03.889Z,1.40
2022-09-02T16:05:33.712Z,3.10
2022-09-02T16:08:02.021Z,3.70
2022-09-02T16:10:36.192Z,5.40
2022-09-02T16:13:04.302Z,5.00
2022-09-02T16:15:34.423Z,4.10
2022-09-02T16:18:02.534Z,1.60
2022-09-02T16:20:31.110Z,1.40
2022-09-02T16:22:58.969Z,5.40
2022-09-02T16:25:26.796Z,3.10
2022-09-02T16:27:56.648Z,3.80
2022-09-02T16:30:26.497Z,4.80
2022-09-02T16:32:54.919Z,5.40
2022-09-02T16:35:22.768Z,2.50
2022-09-02T16:37:51.077Z,4.20
2022-09-02T16:40:21.805Z,2.00
2022-09-02T16:42:50.101Z,2.00
2022-09-02T16:45:17.992Z,2.30
2022-09-02T16:47:48.758Z,3.30
2022-09-02T16:50:16.786Z,5.50
2022-09-02T16:52:48.090Z,8.60
2022-09-02T16:55:18.881Z,10.10
2022-09-02T16:57:48.301Z,8.80
2022-09-02T17:00:16.746Z,7.90
2022-09-02T17:02:44.706Z,5.10
2022-09-02T17:05:14.527Z,2.90
2022-09-02T17:07:45.430Z,6.00
2022-09-02T17:10:13.233Z,3.60
2022-09-02T17:12:43.222Z,6.10
2022-09-02T17:15:12.036Z,3.30
2022-09-02T17:17:40.359Z,5.30
2022-09-02T17:20:10.097Z,7.60
2022-09-02T17:22:37.883Z,6.80
2022-09-02T17:25:07.011Z,6.20
2022-09-02T17:27:37.622Z,1.60
2022-09-02T17:30:07.838Z,1.80
2022-09-02T17:32:35.965Z,1.80
2022-09-02T17:35:04.392Z,5.60
2022-09-02T17:37:35.260Z,5.20
2022-09-02T17:40:32.620Z,4.40
2022-09-02T17:43:05.426Z,2.10
2022-09-02T17:45:33.883Z,3.60
2022-09-02T17:48:19.264Z,1.60
2022-09-02T17:50:49.849Z,2.40
2022-09-02T17:53:19.440Z,2.80
2022-09-02T17:56:04.992Z,2.10
2022-09-02T17:58:55.068Z,5.50
2022-09-02T18:01:26.826Z,2.60
2022-09-02T18:04:03.857Z,6.10
2022-09-02T18:06:40.188Z,4.90
2022-09-02T18:09:10.860Z,5.00
2022-09-02T18:11:39.617Z,6.90
2022-09-02T18:14:41.295Z,2.10
2022-09-02T18:17:34.520Z,5.40
2022-09-02T18:20:27.656Z,1.80
2022-09-02T18:23:37.637Z,3.00
2022-09-02T18:26:57.514Z,3.30
2022-09-02T18:29:46.880Z,2.50
2022-09-02T18:32:41.077Z,4.70
2022-09-02T18:37:58.606Z,3.00
2022-09-02T18:40:49.113Z,2.10
2022-09-02T18:43:25.381Z,2.00
2022-09-02T18:45:58.802Z,4.30
2022-09-02T18:48:38.816Z,2.70
2022-09-02T18:51:19.695Z,2.40
2022-09-02T18:53:55.374Z,3.50
2022-09-02T18:56:30.818Z,3.60
2022-09-02T18:59:45.605Z,2.10
2022-09-02T19:02:44.979Z,3.30
2022-09-02T19:05:23.775Z,5.20
2022-09-02T19:08:20.070Z,4.10
2022-09-02T19:10:48.941Z,3.40
2022-09-02T19:13:17.075Z,2.90
2022-09-02T19:15:45.191Z,3.50
2022-09-02T19:18:14.596Z,2.50
2022-09-02T19:20:45.645Z,3.50
2022-09-02T19:23:14.690Z,2.60
2022-09-02T19:25:46.265Z,3.30
2022-09-02T19:28:16.988Z,3.10
2022-09-02T19:30:45.930Z,3.80
2022-09-02T19:33:16.164Z,5.00
2022-09-02T19:35:48.314Z,5.60
2022-09-02T19:38:18.028Z,9.80
2022-09-02T19:40:49.244Z,11.20
2022-09-02T19:43:18.631Z,7.80
2022-09-02T19:45:50.992Z,5.40
2022-09-02T19:48:20.493Z,5.80
2022-09-02T19:50:48.894Z,5.70
2022-09-02T19:53:30.265Z,7.70
2022-09-02T19:56:00.354Z,7.90
2022-09-02T19:58:31.552Z,6.50
2022-09-02T20:01:01.271Z,10.40
2022-09-02T20:03:31.034Z,10.10
2022-09-02T20:06:00.495Z,10.80
2022-09-02T20:08:32.322Z,8.90
2022-09-02T20:11:04.043Z,8.60
2022-09-02T20:13:41.092Z,11.40
2022-09-02T20:16:23.468Z,8.00
2022-09-02T20:18:53.981Z,8.50
2022-09-02T20:21:26.189Z,10.10
2022-09-02T20:23:57.415Z,10.20
2022-09-02T20:26:49.970Z,8.20
2022-09-02T20:29:54.915Z,8.40
2022-09-02T20:33:04.648Z,8.70
2022-09-02T20:35:58.931Z,8.40
2022-09-02T20:38:48.907Z,10.70
2022-09-02T20:41:35.918Z,8.90
2022-09-02T20:44:23.692Z,9.10
2022-09-02T20:47:32.012Z,9.40
2022-09-02T20:50:15.289Z,6.90
2022-09-02T20:53:04.815Z,7.20
2022-09-02T20:55:55.307Z,4.40
2022-09-02T20:58:46.009Z,6.90
2022-09-02T21:01:42.394Z,4.70
2022-09-02T21:04:35.201Z,17.80
2022-09-02T21:07:11.141Z,8.20
2022-09-02T21:09:56.122Z,8.50
2022-09-02T21:12:37.070Z,10.30
2022-09-02T21:15:27.710Z,7.40
2022-09-02T21:18:17.276Z,8.80
2022-09-02T21:20:55.484Z,8.20
2022-09-02T21:23:41.328Z,6.20
2022-09-02T21:26:18.585Z,11.80
2022-09-02T21:28:58.874Z,8.80
2022-09-02T21:31:54.323Z,5.60
2022-09-02T21:34:54.119Z,7.20
2022-09-02T21:37:25.510Z,7.00
2022-09-02T21:40:05.358Z,8.70
2022-09-02T21:43:13.500Z,12.90
2022-09-02T21:46:20.356Z,15.30
2022-09-02T21:49:29.258Z,7.90
2022-09-02T21:52:26.957Z,5.20
2022-09-02T21:55:31.224Z,9.90
2022-09-02T21:58:30.310Z,10.40
2022-09-02T22:01:20.676Z,9.00
2022-09-02T22:04:26.623Z,6.50
2022-09-02T22:07:19.086Z,10.50
2022-09-02T22:09:50.804Z,6.60
2022-09-02T22:12:19.490Z,7.00
2022-09-02T22:14:59.593Z,5.00
2022-09-02T22:17:55.682Z,6.60
2022-09-02T22:20:31.458Z,6.60
2022-09-02T22:23:09.493Z,9.20
2022-09-02T22:25:38.121Z,6.80
2022-09-02T22:28:19.588Z,7.60
2022-09-02T22:30:55.791Z,9.00
2022-09-02T22:33:29.157Z,7.30
2022-09-02T22:36:07.721Z,8.90
2022-09-02T22:38:41.832Z,7.20
2022-09-02T22:41:25.491Z,8.30
2022-09-02T22:44:02.288Z,5.00
2022-09-02T22:47:26.552Z,6.40
2022-09-02T22:50:18.842Z,7.00
2022-09-02T22:52:50.690Z,9.30
2022-09-02T22:55:53.116Z,9.50
2022-09-02T22:58:43.142Z,5.80
2022-09-02T23:01:37.740Z,9.70
2022-09-02T23:04:22.423Z,7.90
2022-09-02T23:06:55.316Z,9.80
2022-09-02T23:09:23.401Z,9.20
2022-09-02T23:12:02.461Z,7.40
2022-09-02T23:15:04.400Z,8.60
2022-09-02T23:17:40.021Z,8.70
2022-09-02T23:20:21.855Z,10.80
2022-09-02T23:23:23.047Z,8.50
2022-09-02T23:26:09.707Z,12.10
2022-09-02T23:28:52.620Z,7.70
2022-09-02T23:31:54.541Z,9.40
2022-09-02T23:34:41.487Z,10.50
2022-09-02T23:37:47.658Z,6.20
2022-09-02T23:40:31.460Z,9.40
2022-09-02T23:43:00.600Z,7.60
2022-09-02T23:45:33.961Z,13.00
2022-09-02T23:48:21.879Z,6.10
2022-09-02T23:51:10.009Z,9.90
2022-09-02T23:53:47.199Z,6.00
2022-09-02T23:56:42.106Z,7.50
2022-09-02T23:59:16.113Z,7.00
